sensor_id;sensor_type;location;lat;lon;timestamp;temperature;humidity
3790;DHT22;1910;49.042;9.028;2022-11-15T00:01:35;10.80;99.90
3790;DHT22;1910;49.042;9.028;2022-11-15T00:04:04;10.80;99.90
3790;DHT22;1910;49.042;9.028;2022-11-15T00:06:30;10.70;99.90
3790;DHT22;1910;49.042;9.028;2022-11-15T00:09:00;10.70;99.90
3790;DHT22;1910;49.042;9.028;2022-11-15T00:11:26;10.60;99.90
3790;DHT22;1910;49.042;9.028;2022-11-15T00:13:55;10.60;99.90
3790;DHT22;1910;49.042;9.028;2022-11-15T00:16:21;10.60;99.90
3790;DHT22;1910;49.042;9.028;2022-11-15T00:18:46;10.60;99.90
3790;DHT22;1910;49.042;9.028;2022-11-15T00:21:13;10.60;99.90
3790;DHT22;1910;49.042;9.028;2022-11-15T00:31:01;10.70;99.90
3790;DHT22;1910;49.042;9.028;2022-11-15T00:33:27;10.40;99.90
3790;DHT22;1910;49.042;9.028;2022-11-15T00:35:53;10.60;99.90
3790;DHT22;1910;49.042;9.028;2022-11-15T00:38:18;10.60;99.90
3790;DHT22;1910;49.042;9.028;2022-11-15T00:40:44;10.60;99.90
3790;DHT22;1910;49.042;9.028;2022-11-15T00:43:09;10.60;99.90
3790;DHT22;1910;49.042;9.028;2022-11-15T00:45:35;10.60;99.90
3790;DHT22;1910;49.042;9.028;2022-11-15T00:48:00;10.60;99.90
3790;DHT22;1910;49.042;9.028;2022-11-15T00:50:26;10.50;99.90
3790;DHT22;1910;49.042;9.028;2022-11-15T00:52:51;10.50;99.90
3790;DHT22;1910;49.042;9.028;2022-11-15T00:55:17;10.50;99.90
3790;DHT22;1910;49.042;9.028;2022-11-15T00:57:44;10.50;99.90
3790;DHT22;1910;49.042;9.028;2022-11-15T01:00:10;10.40;99.90
3790;DHT22;1910;49.042;9.028;2022-11-15T01:02:35;10.40;99.90
3790;DHT22;1910;49.042;9.028;2022-11-15T01:05:01;10.30;99.90
3790;DHT22;1910;49.042;9.028;2022-11-15T01:07:26;10.30;99.90
3790;DHT22;1910;49.042;9.028;2022-11-15T01:09:52;10.30;99.90
3790;DHT22;1910;49.042;9.028;2022-11-15T01:12:19;10.30;99.90
3790;DHT22;1910;49.042;9.028;2022-11-15T01:26:54;10.40;99.90
3790;DHT22;1910;49.042;9.028;2022-11-15T01:31:45;10.40;99.90
3790;DHT22;1910;49.042;9.028;2022-11-15T01:34:11;10.40;99.90
3790;DHT22;1910;49.042;9.028;2022-11-15T01:36:36;10.40;99.90
3790;DHT22;1910;49.042;9.028;2022-11-15T01:39:02;10.30;99.90
3790;DHT22;1910;49.042;9.028;2022-11-15T01:41:32;10.30;99.90
3790;DHT22;1910;49.042;9.028;2022-11-15T01:47:01;10.20;99.90
3790;DHT22;1910;49.042;9.028;2022-11-15T01:49:30;11.40;99.90
3790;DHT22;1910;49.042;9.028;2022-11-15T01:51:58;10.10;99.90
3790;DHT22;1910;49.042;9.028;2022-11-15T01:54:24;9.90;99.90
3790;DHT22;1910;49.042;9.028;2022-11-15T01:57:03;9.80;99.90
3790;DHT22;1910;49.042;9.028;2022-11-15T02:01:58;10.00;99.90
3790;DHT22;1910;49.042;9.028;2022-11-15T02:04:29;10.00;99.90
3790;DHT22;1910;49.042;9.028;2022-11-15T02:06:56;9.90;99.90
3790;DHT22;1910;49.042;9.028;2022-11-15T02:09:22;9.80;99.90
3790;DHT22;1910;49.042;9.028;2022-11-15T02:14:16;9.70;99.90
3790;DHT22;1910;49.042;9.028;2022-11-15T02:16:53;9.70;99.90
3790;DHT22;1910;49.042;9.028;2022-11-15T02:25:37;9.80;99.90
3790;DHT22;1910;49.042;9.028;2022-11-15T02:28:39;9.90;99.90
3790;DHT22;1910;49.042;9.028;2022-11-15T02:42:30;10.20;99.90
3790;DHT22;1910;49.042;9.028;2022-11-15T02:45:23;10.20;99.90
3790;DHT22;1910;49.042;9.028;2022-11-15T02:47:52;10.30;99.90
3790;DHT22;1910;49.042;9.028;2022-11-15T02:50:21;10.30;99.90
3790;DHT22;1910;49.042;9.028;2022-11-15T02:52:49;10.40;99.90
3790;DHT22;1910;49.042;9.028;2022-11-15T02:55:35;10.40;99.90
3790;DHT22;1910;49.042;9.028;2022-11-15T03:06:49;10.70;99.90
3790;DHT22;1910;49.042;9.028;2022-11-15T03:09:42;10.70;99.90
3790;DHT22;1910;49.042;9.028;2022-11-15T03:12:25;10.70;99.90
3790;DHT22;1910;49.042;9.028;2022-11-15T03:15:09;10.80;99.90
3790;DHT22;1910;49.042;9.028;2022-11-15T03:17:43;10.80;99.90
3790;DHT22;1910;49.042;9.028;2022-11-15T03:20:13;10.70;99.90
3790;DHT22;1910;49.042;9.028;2022-11-15T03:22:44;10.70;99.90
3790;DHT22;1910;49.042;9.028;2022-11-15T03:25:19;10.70;99.90
3790;DHT22;1910;49.042;9.028;2022-11-15T03:27:50;10.60;99.90
3790;DHT22;1910;49.042;9.028;2022-11-15T03:30:16;12.20;99.90
3790;DHT22;1910;49.042;9.028;2022-11-15T03:32:46;10.60;99.90
3790;DHT22;1910;49.042;9.028;2022-11-15T03:35:15;10.60;99.90
3790;DHT22;1910;49.042;9.028;2022-11-15T03:40:37;10.50;99.90
3790;DHT22;1910;49.042;9.028;2022-11-15T03:46:07;10.70;99.90
3790;DHT22;1910;49.042;9.028;2022-11-15T03:48:49;10.60;99.90
3790;DHT22;1910;49.042;9.028;2022-11-15T03:51:17;10.60;99.90
3790;DHT22;1910;49.042;9.028;2022-11-15T03:53:43;10.60;99.90
3790;DHT22;1910;49.042;9.028;2022-11-15T03:56:08;10.60;99.90
3790;DHT22;1910;49.042;9.028;2022-11-15T03:58:34;10.90;99.90
3790;DHT22;1910;49.042;9.028;2022-11-15T04:08:17;10.90;99.90
3790;DHT22;1910;49.042;9.028;2022-11-15T04:10:43;11.00;99.90
3790;DHT22;1910;49.042;9.028;2022-11-15T04:15:38;11.10;99.90
3790;DHT22;1910;49.042;9.028;2022-11-15T04:18:03;11.10;99.90
3790;DHT22;1910;49.042;9.028;2022-11-15T04:20:30;11.20;99.90
3790;DHT22;1910;49.042;9.028;2022-11-15T04:23:22;11.20;99.90
3790;DHT22;1910;49.042;9.028;2022-11-15T04:26:10;11.30;99.90
3790;DHT22;1910;49.042;9.028;2022-11-15T04:28:37;11.30;99.90
3790;DHT22;1910;49.042;9.028;2022-11-15T04:31:26;11.30;99.90
3790;DHT22;1910;49.042;9.028;2022-11-15T04:33:52;11.30;99.90
3790;DHT22;1910;49.042;9.028;2022-11-15T04:36:18;11.20;99.90
3790;DHT22;1910;49.042;9.028;2022-11-15T04:39:02;11.20;99.90
3790;DHT22;1910;49.042;9.028;2022-11-15T04:41:29;11.20;99.90
3790;DHT22;1910;49.042;9.028;2022-11-15T04:43:55;11.20;99.90
3790;DHT22;1910;49.042;9.028;2022-11-15T04:46:24;11.20;99.90
3790;DHT22;1910;49.042;9.028;2022-11-15T04:48:50;11.20;99.90
3790;DHT22;1910;49.042;9.028;2022-11-15T04:51:17;11.10;99.90
3790;DHT22;1910;49.042;9.028;2022-11-15T04:53:42;11.20;99.90
3790;DHT22;1910;49.042;9.028;2022-11-15T04:56:08;11.20;99.90
3790;DHT22;1910;49.042;9.028;2022-11-15T04:58:33;11.20;99.90
3790;DHT22;1910;49.042;9.028;2022-11-15T05:01:07;11.10;99.90
3790;DHT22;1910;49.042;9.028;2022-11-15T05:03:33;11.10;99.90
3790;DHT22;1910;49.042;9.028;2022-11-15T05:06:17;11.10;99.90
3790;DHT22;1910;49.042;9.028;2022-11-15T05:08:42;11.10;99.90
3790;DHT22;1910;49.042;9.028;2022-11-15T05:11:08;11.10;99.90
3790;DHT22;1910;49.042;9.028;2022-11-15T05:13:33;11.00;99.90
3790;DHT22;1910;49.042;9.028;2022-11-15T05:16:02;10.90;99.90
3790;DHT22;1910;49.042;9.028;2022-11-15T05:18:28;10.80;99.90
3790;DHT22;1910;49.042;9.028;2022-11-15T05:20:53;10.80;99.90
3790;DHT22;1910;49.042;9.028;2022-11-15T05:23:19;10.80;99.90
3790;DHT22;1910;49.042;9.028;2022-11-15T05:25:44;10.70;99.90
3790;DHT22;1910;49.042;9.028;2022-11-15T05:28:10;10.70;99.90
3790;DHT22;1910;49.042;9.028;2022-11-15T05:30:35;10.70;99.90
3790;DHT22;1910;49.042;9.028;2022-11-15T05:33:01;10.80;99.90
3790;DHT22;1910;49.042;9.028;2022-11-15T05:35:34;10.80;99.90
3790;DHT22;1910;49.042;9.028;2022-11-15T05:38:09;10.80;99.90
3790;DHT22;1910;49.042;9.028;2022-11-15T05:40:34;10.80;99.90
3790;DHT22;1910;49.042;9.028;2022-11-15T05:43:00;10.80;99.90
3790;DHT22;1910;49.042;9.028;2022-11-15T05:45:28;10.80;99.90
3790;DHT22;1910;49.042;9.028;2022-11-15T05:47:55;10.70;99.90
3790;DHT22;1910;49.042;9.028;2022-11-15T05:50:24;10.70;99.90
3790;DHT22;1910;49.042;9.028;2022-11-15T05:52:51;10.60;99.90
3790;DHT22;1910;49.042;9.028;2022-11-15T05:55:17;10.60;99.90
3790;DHT22;1910;49.042;9.028;2022-11-15T05:57:43;10.50;99.90
3790;DHT22;1910;49.042;9.028;2022-11-15T06:00:09;10.50;99.90
3790;DHT22;1910;49.042;9.028;2022-11-15T06:02:35;10.30;99.90
3790;DHT22;1910;49.042;9.028;2022-11-15T06:05:00;10.30;99.90
3790;DHT22;1910;49.042;9.028;2022-11-15T06:07:26;10.40;99.90
3790;DHT22;1910;49.042;9.028;2022-11-15T06:09:57;10.50;99.90
3790;DHT22;1910;49.042;9.028;2022-11-15T06:12:23;10.50;99.90
3790;DHT22;1910;49.042;9.028;2022-11-15T06:14:50;10.50;99.90
3790;DHT22;1910;49.042;9.028;2022-11-15T06:17:16;10.70;99.90
3790;DHT22;1910;49.042;9.028;2022-11-15T06:19:42;10.80;99.90
3790;DHT22;1910;49.042;9.028;2022-11-15T06:22:10;10.90;99.90
3790;DHT22;1910;49.042;9.028;2022-11-15T06:24:36;11.00;99.90
3790;DHT22;1910;49.042;9.028;2022-11-15T06:27:02;11.00;99.90
3790;DHT22;1910;49.042;9.028;2022-11-15T06:29:27;11.10;99.90
3790;DHT22;1910;49.042;9.028;2022-11-15T06:31:53;11.20;99.90
3790;DHT22;1910;49.042;9.028;2022-11-15T06:34:18;11.20;99.90
3790;DHT22;1910;49.042;9.028;2022-11-15T06:36:44;11.20;99.90
3790;DHT22;1910;49.042;9.028;2022-11-15T06:39:09;11.20;99.90
3790;DHT22;1910;49.042;9.028;2022-11-15T06:41:39;11.10;99.90
3790;DHT22;1910;49.042;9.028;2022-11-15T06:44:04;11.20;99.90
3790;DHT22;1910;49.042;9.028;2022-11-15T06:46:30;11.00;99.90
3790;DHT22;1910;49.042;9.028;2022-11-15T06:48:55;11.10;99.90
3790;DHT22;1910;49.042;9.028;2022-11-15T06:51:21;11.10;99.90
3790;DHT22;1910;49.042;9.028;2022-11-15T06:53:47;11.50;99.90
3790;DHT22;1910;49.042;9.028;2022-11-15T06:56:13;11.10;99.90
3790;DHT22;1910;49.042;9.028;2022-11-15T06:58:40;11.10;99.90
3790;DHT22;1910;49.042;9.028;2022-11-15T07:01:08;11.00;99.90
3790;DHT22;1910;49.042;9.028;2022-11-15T07:03:36;11.00;99.90
3790;DHT22;1910;49.042;9.028;2022-11-15T07:06:02;11.10;99.90
3790;DHT22;1910;49.042;9.028;2022-11-15T07:08:28;11.30;99.90
3790;DHT22;1910;49.042;9.028;2022-11-15T07:10:57;11.50;99.90
3790;DHT22;1910;49.042;9.028;2022-11-15T07:13:28;11.60;99.90
3790;DHT22;1910;49.042;9.028;2022-11-15T07:15:55;11.60;99.90
3790;DHT22;1910;49.042;9.028;2022-11-15T07:18:27;11.60;99.90
3790;DHT22;1910;49.042;9.028;2022-11-15T07:20:53;11.80;99.90
3790;DHT22;1910;49.042;9.028;2022-11-15T07:23:18;12.20;99.90
3790;DHT22;1910;49.042;9.028;2022-11-15T07:25:44;12.40;99.90
3790;DHT22;1910;49.042;9.028;2022-11-15T07:28:13;12.40;99.90
3790;DHT22;1910;49.042;9.028;2022-11-15T07:30:38;12.60;99.90
3790;DHT22;1910;49.042;9.028;2022-11-15T07:33:04;12.80;99.90
3790;DHT22;1910;49.042;9.028;2022-11-15T07:35:30;12.80;99.90
3790;DHT22;1910;49.042;9.028;2022-11-15T07:37:58;13.50;99.90
3790;DHT22;1910;49.042;9.028;2022-11-15T07:40:24;13.70;99.90
3790;DHT22;1910;49.042;9.028;2022-11-15T07:42:49;13.60;99.90
3790;DHT22;1910;49.042;9.028;2022-11-15T07:45:18;13.30;99.90
3790;DHT22;1910;49.042;9.028;2022-11-15T07:47:48;13.30;99.90
3790;DHT22;1910;49.042;9.028;2022-11-15T07:50:23;13.20;99.90
3790;DHT22;1910;49.042;9.028;2022-11-15T07:52:56;12.90;99.90
3790;DHT22;1910;49.042;9.028;2022-11-15T07:55:24;12.70;99.90
3790;DHT22;1910;49.042;9.028;2022-11-15T07:57:50;12.50;99.90
3790;DHT22;1910;49.042;9.028;2022-11-15T08:00:16;12.50;99.90
3790;DHT22;1910;49.042;9.028;2022-11-15T08:02:42;12.50;99.90
3790;DHT22;1910;49.042;9.028;2022-11-15T08:05:10;12.60;99.90
3790;DHT22;1910;49.042;9.028;2022-11-15T08:07:36;12.50;99.90
3790;DHT22;1910;49.042;9.028;2022-11-15T08:10:03;12.60;99.90
3790;DHT22;1910;49.042;9.028;2022-11-15T08:12:31;12.40;99.90
3790;DHT22;1910;49.042;9.028;2022-11-15T08:14:57;12.40;99.90
3790;DHT22;1910;49.042;9.028;2022-11-15T08:17:25;12.40;99.90
3790;DHT22;1910;49.042;9.028;2022-11-15T08:19:51;12.60;99.90
3790;DHT22;1910;49.042;9.028;2022-11-15T08:22:17;12.80;99.90
3790;DHT22;1910;49.042;9.028;2022-11-15T08:24:43;13.40;99.90
3790;DHT22;1910;49.042;9.028;2022-11-15T08:27:09;13.40;99.90
3790;DHT22;1910;49.042;9.028;2022-11-15T08:29:43;13.50;99.90
3790;DHT22;1910;49.042;9.028;2022-11-15T08:32:10;13.50;99.90
3790;DHT22;1910;49.042;9.028;2022-11-15T08:34:37;13.50;99.90
3790;DHT22;1910;49.042;9.028;2022-11-15T08:37:02;13.40;99.90
3790;DHT22;1910;49.042;9.028;2022-11-15T08:39:28;13.20;99.90
3790;DHT22;1910;49.042;9.028;2022-11-15T08:41:53;13.10;99.90
3790;DHT22;1910;49.042;9.028;2022-11-15T08:46:46;13.20;99.90
3790;DHT22;1910;49.042;9.028;2022-11-15T08:49:11;13.40;99.90
3790;DHT22;1910;49.042;9.028;2022-11-15T08:51:37;13.60;99.90
3790;DHT22;1910;49.042;9.028;2022-11-15T08:54:02;15.50;99.90
3790;DHT22;1910;49.042;9.028;2022-11-15T08:56:28;14.20;99.90
3790;DHT22;1910;49.042;9.028;2022-11-15T08:58:53;14.60;99.90
3790;DHT22;1910;49.042;9.028;2022-11-15T09:01:20;14.90;99.90
3790;DHT22;1910;49.042;9.028;2022-11-15T09:03:45;15.00;99.90
3790;DHT22;1910;49.042;9.028;2022-11-15T09:06:14;15.10;99.90
3790;DHT22;1910;49.042;9.028;2022-11-15T09:08:41;15.20;99.90
3790;DHT22;1910;49.042;9.028;2022-11-15T09:11:08;15.30;99.90
3790;DHT22;1910;49.042;9.028;2022-11-15T09:13:38;15.30;99.90
3790;DHT22;1910;49.042;9.028;2022-11-15T09:16:04;15.60;99.90
3790;DHT22;1910;49.042;9.028;2022-11-15T09:18:30;16.10;99.90
3790;DHT22;1910;49.042;9.028;2022-11-15T09:20:58;16.00;99.90
3790;DHT22;1910;49.042;9.028;2022-11-15T09:23:24;15.90;99.90
3790;DHT22;1910;49.042;9.028;2022-11-15T09:25:52;15.80;99.90
3790;DHT22;1910;49.042;9.028;2022-11-15T09:28:17;16.20;99.90
3790;DHT22;1910;49.042;9.028;2022-11-15T09:33:11;16.10;99.90
3790;DHT22;1910;49.042;9.028;2022-11-15T09:35:38;15.70;99.90
3790;DHT22;1910;49.042;9.028;2022-11-15T09:38:07;15.30;99.90
3790;DHT22;1910;49.042;9.028;2022-11-15T09:40:36;15.10;99.90
3790;DHT22;1910;49.042;9.028;2022-11-15T09:46:17;14.70;99.90
3790;DHT22;1910;49.042;9.028;2022-11-15T09:51:27;14.70;99.90
3790;DHT22;1910;49.042;9.028;2022-11-15T09:56:30;15.00;99.90
3790;DHT22;1910;49.042;9.028;2022-11-15T10:04:34;15.10;99.90
3790;DHT22;1910;49.042;9.028;2022-11-15T10:07:02;15.10;99.90
3790;DHT22;1910;49.042;9.028;2022-11-15T10:09:51;15.20;99.90
3790;DHT22;1910;49.042;9.028;2022-11-15T10:12:18;15.10;99.90
3790;DHT22;1910;49.042;9.028;2022-11-15T10:14:46;14.80;99.90
3790;DHT22;1910;49.042;9.028;2022-11-15T10:17:37;14.80;99.90
3790;DHT22;1910;49.042;9.028;2022-11-15T10:20:27;14.70;99.90
3790;DHT22;1910;49.042;9.028;2022-11-15T10:22:56;14.50;99.90
3790;DHT22;1910;49.042;9.028;2022-11-15T10:25:29;14.30;99.90
3790;DHT22;1910;49.042;9.028;2022-11-15T10:28:05;14.30;99.90
3790;DHT22;1910;49.042;9.028;2022-11-15T10:30:37;14.20;99.90
3790;DHT22;1910;49.042;9.028;2022-11-15T10:33:32;14.20;99.90
3790;DHT22;1910;49.042;9.028;2022-11-15T10:36:21;14.20;99.90
3790;DHT22;1910;49.042;9.028;2022-11-15T10:41:16;14.00;99.90
3790;DHT22;1910;49.042;9.028;2022-11-15T10:43:42;14.20;99.90
3790;DHT22;1910;49.042;9.028;2022-11-15T10:46:23;14.30;99.90
3790;DHT22;1910;49.042;9.028;2022-11-15T10:48:49;14.40;99.90
3790;DHT22;1910;49.042;9.028;2022-11-15T10:51:25;14.30;99.90
3790;DHT22;1910;49.042;9.028;2022-11-15T10:53:54;14.20;99.90
3790;DHT22;1910;49.042;9.028;2022-11-15T10:56:22;14.30;99.90
3790;DHT22;1910;49.042;9.028;2022-11-15T10:58:54;14.40;99.90
3790;DHT22;1910;49.042;9.028;2022-11-15T11:01:25;14.50;99.90
3790;DHT22;1910;49.042;9.028;2022-11-15T11:04:03;14.70;99.90
3790;DHT22;1910;49.042;9.028;2022-11-15T11:06:29;14.80;99.90
3790;DHT22;1910;49.042;9.028;2022-11-15T11:11:23;14.90;99.90
3790;DHT22;1910;49.042;9.028;2022-11-15T11:13:48;14.90;99.90
3790;DHT22;1910;49.042;9.028;2022-11-15T11:22:04;14.50;99.90
3790;DHT22;1910;49.042;9.028;2022-11-15T11:24:38;14.50;99.90
3790;DHT22;1910;49.042;9.028;2022-11-15T11:36:03;14.70;99.90
3790;DHT22;1910;49.042;9.028;2022-11-15T11:41:46;14.90;99.90
3790;DHT22;1910;49.042;9.028;2022-11-15T11:47:21;15.70;99.90
3790;DHT22;1910;49.042;9.028;2022-11-15T11:49:50;16.00;99.90
3790;DHT22;1910;49.042;9.028;2022-11-15T12:00:19;15.70;99.90
3790;DHT22;1910;49.042;9.028;2022-11-15T12:03:05;15.90;99.90
3790;DHT22;1910;49.042;9.028;2022-11-15T12:05:57;15.90;99.90
3790;DHT22;1910;49.042;9.028;2022-11-15T12:08:43;16.30;99.90
3790;DHT22;1910;49.042;9.028;2022-11-15T12:11:32;16.50;99.90
3790;DHT22;1910;49.042;9.028;2022-11-15T12:14:04;16.70;99.90
3790;DHT22;1910;49.042;9.028;2022-11-15T12:16:32;16.30;99.90
3790;DHT22;1910;49.042;9.028;2022-11-15T12:19:01;16.30;99.90
3790;DHT22;1910;49.042;9.028;2022-11-15T12:21:58;16.30;99.90
3790;DHT22;1910;49.042;9.028;2022-11-15T12:24:33;16.20;99.90
3790;DHT22;1910;49.042;9.028;2022-11-15T12:27:19;16.20;99.90
3790;DHT22;1910;49.042;9.028;2022-11-15T12:29:49;16.50;99.90
3790;DHT22;1910;49.042;9.028;2022-11-15T12:32:34;16.60;99.90
3790;DHT22;1910;49.042;9.028;2022-11-15T12:35:02;16.70;99.90
3790;DHT22;1910;49.042;9.028;2022-11-15T12:42:38;16.10;99.90
3790;DHT22;1910;49.042;9.028;2022-11-15T12:45:27;16.00;99.90
3790;DHT22;1910;49.042;9.028;2022-11-15T12:47:53;15.80;99.90
3790;DHT22;1910;49.042;9.028;2022-11-15T12:58:55;15.00;99.90
3790;DHT22;1910;49.042;9.028;2022-11-15T13:06:54;15.20;99.90
3790;DHT22;1910;49.042;9.028;2022-11-15T13:14:58;14.90;99.90
3790;DHT22;1910;49.042;9.028;2022-11-15T13:17:37;15.10;99.90
3790;DHT22;1910;49.042;9.028;2022-11-15T13:28:24;15.10;99.90
3790;DHT22;1910;49.042;9.028;2022-11-15T13:33:34;14.90;99.90
3790;DHT22;1910;49.042;9.028;2022-11-15T13:36:13;14.70;99.90
3790;DHT22;1910;49.042;9.028;2022-11-15T13:38:41;14.70;99.90
3790;DHT22;1910;49.042;9.028;2022-11-15T13:41:20;14.60;99.90
3790;DHT22;1910;49.042;9.028;2022-11-15T13:43:48;14.00;99.90
3790;DHT22;1910;49.042;9.028;2022-11-15T13:46:18;14.50;99.90
3790;DHT22;1910;49.042;9.028;2022-11-15T13:48:45;14.40;99.90
3790;DHT22;1910;49.042;9.028;2022-11-15T13:54:01;14.10;99.90
3790;DHT22;1910;49.042;9.028;2022-11-15T13:56:27;14.10;99.90
3790;DHT22;1910;49.042;9.028;2022-11-15T13:58:54;14.10;99.90
3790;DHT22;1910;49.042;9.028;2022-11-15T14:01:21;14.10;99.90
3790;DHT22;1910;49.042;9.028;2022-11-15T14:03:55;14.10;99.90
3790;DHT22;1910;49.042;9.028;2022-11-15T14:06:23;14.20;99.90
3790;DHT22;1910;49.042;9.028;2022-11-15T14:11:37;14.20;99.90
3790;DHT22;1910;49.042;9.028;2022-11-15T14:16:36;14.20;99.90
3790;DHT22;1910;49.042;9.028;2022-11-15T14:19:03;14.10;99.90
3790;DHT22;1910;49.042;9.028;2022-11-15T14:21:29;14.20;99.90
3790;DHT22;1910;49.042;9.028;2022-11-15T14:24:14;14.30;99.90
3790;DHT22;1910;49.042;9.028;2022-11-15T14:26:41;14.30;99.90
3790;DHT22;1910;49.042;9.028;2022-11-15T14:29:26;14.30;99.90
3790;DHT22;1910;49.042;9.028;2022-11-15T14:32:13;14.30;99.90
3790;DHT22;1910;49.042;9.028;2022-11-15T14:34:39;14.20;99.90
3790;DHT22;1910;49.042;9.028;2022-11-15T14:37:04;14.10;99.90
3790;DHT22;1910;49.042;9.028;2022-11-15T14:39:30;14.10;99.90
3790;DHT22;1910;49.042;9.028;2022-11-15T14:41:55;14.40;99.90
3790;DHT22;1910;49.042;9.028;2022-11-15T14:49:13;14.20;99.90
3790;DHT22;1910;49.042;9.028;2022-11-15T14:51:40;14.10;99.90
3790;DHT22;1910;49.042;9.028;2022-11-15T14:54:09;14.10;99.90
3790;DHT22;1910;49.042;9.028;2022-11-15T14:56:35;13.90;99.90
3790;DHT22;1910;49.042;9.028;2022-11-15T15:01:27;13.90;99.90
3790;DHT22;1910;49.042;9.028;2022-11-15T15:03:53;13.90;99.90
3790;DHT22;1910;49.042;9.028;2022-11-15T15:06:23;13.80;99.90
3790;DHT22;1910;49.042;9.028;2022-11-15T15:08:49;13.80;99.90
3790;DHT22;1910;49.042;9.028;2022-11-15T15:11:21;13.70;99.90
3790;DHT22;1910;49.042;9.028;2022-11-15T15:13:47;13.60;99.90
3790;DHT22;1910;49.042;9.028;2022-11-15T15:16:12;13.60;99.90
3790;DHT22;1910;49.042;9.028;2022-11-15T15:18:38;13.50;99.90
3790;DHT22;1910;49.042;9.028;2022-11-15T15:21:21;13.60;99.90
3790;DHT22;1910;49.042;9.028;2022-11-15T15:23:47;13.60;99.90
3790;DHT22;1910;49.042;9.028;2022-11-15T15:26:12;13.60;99.90
3790;DHT22;1910;49.042;9.028;2022-11-15T15:28:38;13.50;99.90
3790;DHT22;1910;49.042;9.028;2022-11-15T15:31:04;13.50;99.90
3790;DHT22;1910;49.042;9.028;2022-11-15T15:33:30;13.30;99.90
3790;DHT22;1910;49.042;9.028;2022-11-15T15:35:56;13.30;99.90
3790;DHT22;1910;49.042;9.028;2022-11-15T15:38:22;13.30;99.90
3790;DHT22;1910;49.042;9.028;2022-11-15T15:40:48;13.20;99.90
3790;DHT22;1910;49.042;9.028;2022-11-15T15:43:13;13.20;99.90
3790;DHT22;1910;49.042;9.028;2022-11-15T15:45:40;13.20;99.90
3790;DHT22;1910;49.042;9.028;2022-11-15T15:48:11;13.10;99.90
3790;DHT22;1910;49.042;9.028;2022-11-15T15:53:04;13.10;99.90
3790;DHT22;1910;49.042;9.028;2022-11-15T15:57:58;13.20;99.90
3790;DHT22;1910;49.042;9.028;2022-11-15T16:00:25;13.20;99.90
3790;DHT22;1910;49.042;9.028;2022-11-15T16:02:51;13.20;99.90
3790;DHT22;1910;49.042;9.028;2022-11-15T16:05:17;13.20;99.90
3790;DHT22;1910;49.042;9.028;2022-11-15T16:07:43;13.20;99.90
3790;DHT22;1910;49.042;9.028;2022-11-15T16:12:48;13.30;99.90
3790;DHT22;1910;49.042;9.028;2022-11-15T16:15:14;13.30;99.90
3790;DHT22;1910;49.042;9.028;2022-11-15T16:17:51;13.30;99.90
3790;DHT22;1910;49.042;9.028;2022-11-15T16:22:58;13.40;99.90
3790;DHT22;1910;49.042;9.028;2022-11-15T16:25:24;13.40;99.90
3790;DHT22;1910;49.042;9.028;2022-11-15T16:30:18;13.40;99.90
3790;DHT22;1910;49.042;9.028;2022-11-15T16:32:44;13.50;99.90
3790;DHT22;1910;49.042;9.028;2022-11-15T16:35:14;13.50;99.90
3790;DHT22;1910;49.042;9.028;2022-11-15T16:37:40;13.50;99.90
3790;DHT22;1910;49.042;9.028;2022-11-15T16:40:27;13.50;99.90
3790;DHT22;1910;49.042;9.028;2022-11-15T16:42:53;13.50;99.90
3790;DHT22;1910;49.042;9.028;2022-11-15T16:47:44;13.50;99.90
3790;DHT22;1910;49.042;9.028;2022-11-15T16:50:27;13.50;99.90
3790;DHT22;1910;49.042;9.028;2022-11-15T16:52:55;13.50;99.90
3790;DHT22;1910;49.042;9.028;2022-11-15T16:55:23;13.40;99.90
3790;DHT22;1910;49.042;9.028;2022-11-15T16:57:49;13.30;99.90
3790;DHT22;1910;49.042;9.028;2022-11-15T17:00:16;13.20;99.90
3790;DHT22;1910;49.042;9.028;2022-11-15T17:02:47;13.20;99.90
3790;DHT22;1910;49.042;9.028;2022-11-15T17:05:15;13.10;99.90
3790;DHT22;1910;49.042;9.028;2022-11-15T17:07:41;13.10;99.90
3790;DHT22;1910;49.042;9.028;2022-11-15T17:10:08;13.20;99.90
3790;DHT22;1910;49.042;9.028;2022-11-15T17:12:35;13.10;99.90
3790;DHT22;1910;49.042;9.028;2022-11-15T17:15:01;13.20;99.90
3790;DHT22;1910;49.042;9.028;2022-11-15T17:17:27;13.20;99.90
3790;DHT22;1910;49.042;9.028;2022-11-15T17:19:53;13.20;99.90
3790;DHT22;1910;49.042;9.028;2022-11-15T17:22:19;13.20;99.90
3790;DHT22;1910;49.042;9.028;2022-11-15T17:24:45;13.20;99.90
3790;DHT22;1910;49.042;9.028;2022-11-15T17:27:11;13.30;99.90
3790;DHT22;1910;49.042;9.028;2022-11-15T17:29:36;13.30;99.90
3790;DHT22;1910;49.042;9.028;2022-11-15T17:32:02;13.30;99.90
3790;DHT22;1910;49.042;9.028;2022-11-15T17:34:28;13.20;99.90
3790;DHT22;1910;49.042;9.028;2022-11-15T17:36:53;13.20;99.90
3790;DHT22;1910;49.042;9.028;2022-11-15T17:39:20;13.20;99.90
3790;DHT22;1910;49.042;9.028;2022-11-15T17:41:47;13.10;99.90
3790;DHT22;1910;49.042;9.028;2022-11-15T17:44:13;13.10;99.90
3790;DHT22;1910;49.042;9.028;2022-11-15T17:49:05;13.10;99.90
3790;DHT22;1910;49.042;9.028;2022-11-15T17:51:31;13.10;99.90
3790;DHT22;1910;49.042;9.028;2022-11-15T17:53:57;13.10;99.90
3790;DHT22;1910;49.042;9.028;2022-11-15T17:56:24;13.20;99.90
3790;DHT22;1910;49.042;9.028;2022-11-15T17:58:54;13.10;99.90
3790;DHT22;1910;49.042;9.028;2022-11-15T18:03:47;13.10;99.90
3790;DHT22;1910;49.042;9.028;2022-11-15T18:06:12;13.00;99.90
3790;DHT22;1910;49.042;9.028;2022-11-15T18:08:40;13.00;99.90
3790;DHT22;1910;49.042;9.028;2022-11-15T18:11:11;13.50;99.90
3790;DHT22;1910;49.042;9.028;2022-11-15T18:13:39;13.00;99.90
3790;DHT22;1910;49.042;9.028;2022-11-15T18:16:09;13.10;99.90
3790;DHT22;1910;49.042;9.028;2022-11-15T18:18:35;13.10;99.90
3790;DHT22;1910;49.042;9.028;2022-11-15T18:21:05;13.10;99.90
3790;DHT22;1910;49.042;9.028;2022-11-15T18:23:31;13.10;99.90
3790;DHT22;1910;49.042;9.028;2022-11-15T18:25:59;13.10;99.90
3790;DHT22;1910;49.042;9.028;2022-11-15T18:28:36;13.10;99.90
3790;DHT22;1910;49.042;9.028;2022-11-15T18:31:29;13.20;99.90
3790;DHT22;1910;49.042;9.028;2022-11-15T18:33:58;13.10;99.90
3790;DHT22;1910;49.042;9.028;2022-11-15T18:36:26;13.10;99.90
3790;DHT22;1910;49.042;9.028;2022-11-15T18:38:57;13.10;99.90
3790;DHT22;1910;49.042;9.028;2022-11-15T18:41:23;13.20;99.90
3790;DHT22;1910;49.042;9.028;2022-11-15T18:43:53;13.10;99.90
3790;DHT22;1910;49.042;9.028;2022-11-15T18:46:20;13.20;99.90
3790;DHT22;1910;49.042;9.028;2022-11-15T18:48:47;13.20;99.90
3790;DHT22;1910;49.042;9.028;2022-11-15T18:51:18;16.00;99.90
3790;DHT22;1910;49.042;9.028;2022-11-15T18:53:45;13.30;99.90
3790;DHT22;1910;49.042;9.028;2022-11-15T18:56:13;13.40;99.90
3790;DHT22;1910;49.042;9.028;2022-11-15T18:58:41;13.40;99.90
3790;DHT22;1910;49.042;9.028;2022-11-15T19:01:12;13.40;99.90
3790;DHT22;1910;49.042;9.028;2022-11-15T19:03:40;13.30;99.90
3790;DHT22;1910;49.042;9.028;2022-11-15T19:06:09;13.30;99.90
3790;DHT22;1910;49.042;9.028;2022-11-15T19:08:35;13.30;99.90
3790;DHT22;1910;49.042;9.028;2022-11-15T19:11:12;13.30;99.90
3790;DHT22;1910;49.042;9.028;2022-11-15T19:16:05;13.10;99.90
3790;DHT22;1910;49.042;9.028;2022-11-15T19:18:31;13.00;99.90
3790;DHT22;1910;49.042;9.028;2022-11-15T19:21:02;13.00;99.90
3790;DHT22;1910;49.042;9.028;2022-11-15T19:25:56;12.80;99.90
3790;DHT22;1910;49.042;9.028;2022-11-15T19:28:24;15.30;99.90
3790;DHT22;1910;49.042;9.028;2022-11-15T19:31:12;13.20;99.90
3790;DHT22;1910;49.042;9.028;2022-11-15T19:33:38;12.70;99.90
3790;DHT22;1910;49.042;9.028;2022-11-15T19:36:13;12.60;99.90